Darstellungsparameter: Aktuell verwendete Einstellungen:
Skalierung der Graphiken ... ?
xyx+y,   Skalierungsfaktor:      Skalierung: Modus: x, Faktor: 1
Darstellungszeitraum ... ?
Vom - - bis: - -   Zeitraum: 25.10.2020 - 25.10.2020
Min/Max/Avg-Anzeige ... ?
Zeige MMA aktuell
Zeige MMA Monat
Zeige MMA alles
Zeige --A aktuell
Zeige --A Monat
Zeige --A alles
Keine MMA-Anzeige
MMA:
Average (ber die Originaldaten)
MMA-Basis: 25.10.2020 - 25.10.2020
Quicknavigation für Darstellung... ?
Tage:      1T, 2T, 3T, 5T -1T -2T -3T -5T +1T +2T +3T +5T
Wochen: 1W, 2W, 3W -1W -2W -3W +1W +2W +3W
Monate: 1M, 3M, 6M -1M -3M -6M +1M +3M +6M
Jahre:    1J, 3J, 5J, 10J -1J -3J -5J -10J +1J +3J +5J +10J
Nutze für die Darstellung ... ?
Originaldaten oder Mittelwerte auf ...
Stundenbasis Tagesbasis Wochenbasis
Monatsbasis Jahresbasis      Datenbasis: Original-Daten
Darstellen als:
Statistik (Auto) Statistik J:M      Darstellung:

Der gewünschte Datumsbereich war nicht gültig/verfügbar und wurde korrigiert....
Das angegebene Enddatum (15.05.2023 23:59:59) liegt in der Zukunft.
Das angegebene Startdatum (09.05.2023 00:00:00) liegt in der Zukunft.


Zur Graphik,    zurück zur Übersicht aller Sensoren.
 
Tabellarische Datenbersicht: ?
 
Sensor: Nr:Datum:Temp:Abs-Feuchte:Windchill:Wind:
Aussen-T/F 1 25-10-2020 02:00:00 14.5 C 10.32 g/m*3 14.5 C 4.8 km/h
2 25-10-2020 02:05:00 14.6 C 10.39 g/m*3 14.6 C 4.8 km/h
3 25-10-2020 02:10:00 14.6 C 10.26 g/m*3 14.6 C 9.7 km/h
4 25-10-2020 02:15:00 14.6 C 10.26 g/m*3 14.6 C 3.2 km/h
5 25-10-2020 02:20:00 14.6 C 10.14 g/m*3 14.6 C 1.6 km/h
6 25-10-2020 02:25:00 14.6 C 10.14 g/m*3 14.6 C 3.2 km/h
7 25-10-2020 02:30:00 14.5 C 10.2 g/m*3 14.5 C 3.2 km/h
8 25-10-2020 02:35:00 14.4 C 10.14 g/m*3 14.4 C 3.2 km/h
9 25-10-2020 02:40:00 14.3 C 10.07 g/m*3 14.3 C 8.1 km/h
10 25-10-2020 02:45:00 14.2 C 10.01 g/m*3 14.2 C 3.2 km/h
11 25-10-2020 02:50:00 14.2 C 10.01 g/m*3 14.2 C 4.8 km/h
12 25-10-2020 02:55:00 14.1 C 10.07 g/m*3 14.1 C 0 km/h
13 25-10-2020 04:00:00 14 C 10.01 g/m*3 14 C 1.6 km/h
14 25-10-2020 04:05:00 13.7 C 9.83 g/m*3 13.7 C 9.7 km/h
15 25-10-2020 04:05:00 13.3 C 9.7 g/m*3 13.3 C 3.2 km/h
16 25-10-2020 04:10:00 13.7 C 9.83 g/m*3 13.7 C 8.1 km/h
17 25-10-2020 04:10:00 13.3 C 9.59 g/m*3 13.3 C 11.3 km/h
18 25-10-2020 04:15:00 13.3 C 9.59 g/m*3 13.3 C 3.2 km/h
19 25-10-2020 04:15:00 13.7 C 9.83 g/m*3 13.7 C 1.6 km/h
20 25-10-2020 04:20:00 13.3 C 9.59 g/m*3 13.3 C 3.2 km/h
21 25-10-2020 04:20:00 13.6 C 9.77 g/m*3 13.6 C 6.4 km/h
22 25-10-2020 04:25:00 13.2 C 9.64 g/m*3 13.2 C 0 km/h
23 25-10-2020 04:25:00 13.6 C 9.77 g/m*3 13.6 C 4.8 km/h
24 25-10-2020 04:30:00 13.2 C 9.64 g/m*3 13.2 C 0 km/h
25 25-10-2020 04:30:00 13.6 C 9.77 g/m*3 13.6 C 1.6 km/h
Sensor: Nr:Datum:Temp:Abs-Feuchte:Windchill:Wind:
Aussen-T/F 26 25-10-2020 04:35:00 13.6 C 9.77 g/m*3 13.6 C 1.6 km/h
27 25-10-2020 04:35:00 13.2 C 9.53 g/m*3 13.2 C 8.1 km/h
28 25-10-2020 04:40:00 13.5 C 9.71 g/m*3 13.5 C 4.8 km/h
29 25-10-2020 04:40:00 13.2 C 9.53 g/m*3 13.2 C 8.1 km/h
30 25-10-2020 04:45:00 13.5 C 9.71 g/m*3 13.5 C 6.4 km/h
31 25-10-2020 04:45:00 13.2 C 9.53 g/m*3 13.2 C 3.2 km/h
32 25-10-2020 04:50:00 13.4 C 9.76 g/m*3 13.4 C 0 km/h
33 25-10-2020 04:50:00 13.1 C 9.47 g/m*3 13.1 C 0 km/h
34 25-10-2020 04:55:00 13.1 C 9.47 g/m*3 13.1 C 4.8 km/h
35 25-10-2020 04:55:00 13.4 C 9.65 g/m*3 13.4 C 4.8 km/h
36 25-10-2020 05:00:00 13.1 C 9.47 g/m*3 13.1 C 4.8 km/h
37 25-10-2020 05:00:00 13.3 C 9.7 g/m*3 13.3 C 4.8 km/h
38 25-10-2020 05:05:00 13.1 C 9.59 g/m*3 13.1 C 0 km/h
39 25-10-2020 05:10:00 13 C 9.53 g/m*3 13 C 3.2 km/h
40 25-10-2020 05:15:00 12.9 C 9.47 g/m*3 12.9 C 0 km/h
41 25-10-2020 05:20:00 12.8 C 9.41 g/m*3 12.8 C 3.2 km/h
42 25-10-2020 05:25:00 12.8 C 9.41 g/m*3 12.8 C 3.2 km/h
43 25-10-2020 05:30:00 12.7 C 9.46 g/m*3 12.7 C 0 km/h
44 25-10-2020 05:35:00 12.7 C 9.46 g/m*3 12.7 C 1.6 km/h
45 25-10-2020 05:40:00 12.7 C 9.46 g/m*3 12.7 C 1.6 km/h
46 25-10-2020 05:45:00 12.6 C 9.4 g/m*3 12.6 C 0 km/h
47 25-10-2020 05:50:00 12.6 C 9.4 g/m*3 12.6 C 1.6 km/h
48 25-10-2020 05:55:00 12.5 C 9.35 g/m*3 12.5 C 3.2 km/h
49 25-10-2020 06:00:00 12.4 C 9.4 g/m*3 12.4 C 1.6 km/h
50 25-10-2020 06:05:00 12.3 C 9.34 g/m*3 12.3 C 0 km/h
Sensor: Nr:Datum:Temp:Abs-Feuchte:Windchill:Wind:
Aussen-T/F 51 25-10-2020 06:10:00 12.2 C 9.28 g/m*3 12.2 C 0 km/h
52 25-10-2020 06:15:00 12.1 C 9.22 g/m*3 12.1 C 0 km/h
53 25-10-2020 06:20:00 11.9 C 9.21 g/m*3 11.9 C 0 km/h
54 25-10-2020 06:25:00 11.8 C 9.16 g/m*3 11.8 C 0 km/h
55 25-10-2020 06:30:00 11.8 C 9.26 g/m*3 11.8 C 0 km/h
56 25-10-2020 06:35:00 11.8 C 9.26 g/m*3 11.8 C 3.2 km/h
57 25-10-2020 06:40:00 11.7 C 9.2 g/m*3 11.7 C 1.6 km/h
58 25-10-2020 06:45:00 11.7 C 9.2 g/m*3 11.7 C 0 km/h
59 25-10-2020 06:50:00 11.6 C 9.15 g/m*3 11.6 C 1.6 km/h
60 25-10-2020 06:55:00 11.5 C 9.19 g/m*3 11.5 C 0 km/h
61 25-10-2020 07:00:00 11.4 C 9.14 g/m*3 11.4 C 0 km/h
62 25-10-2020 07:05:00 11.4 C 9.24 g/m*3 11.4 C 0 km/h
63 25-10-2020 07:10:00 11.4 C 9.24 g/m*3 11.4 C 0 km/h
64 25-10-2020 07:15:00 11.4 C 9.24 g/m*3 11.4 C 0 km/h
65 25-10-2020 07:20:00 11.5 C 9.3 g/m*3 11.5 C 0 km/h
66 25-10-2020 07:25:00 11.6 C 9.35 g/m*3 11.6 C 8.1 km/h
67 25-10-2020 07:30:00 11.7 C 9.31 g/m*3 11.7 C 6.4 km/h
68 25-10-2020 07:35:00 11.8 C 9.26 g/m*3 11.8 C 4.8 km/h
69 25-10-2020 07:40:00 12.1 C 9.33 g/m*3 12.1 C 3.2 km/h
70 25-10-2020 07:45:00 12.2 C 9.39 g/m*3 12.2 C 1.6 km/h
71 25-10-2020 07:50:00 12.3 C 9.34 g/m*3 12.3 C 6.4 km/h
72 25-10-2020 07:55:00 12.4 C 9.29 g/m*3 12.4 C 3.2 km/h
73 25-10-2020 08:00:00 12.6 C 9.4 g/m*3 12.6 C 0 km/h
74 25-10-2020 08:05:00 12.7 C 9.35 g/m*3 12.7 C 1.6 km/h
75 25-10-2020 08:10:00 12.8 C 9.41 g/m*3 12.8 C 4.8 km/h
Sensor: Nr:Datum:Temp:Abs-Feuchte:Windchill:Wind:
Aussen-T/F 76 25-10-2020 08:15:00 12.9 C 9.47 g/m*3 12.9 C 1.6 km/h
77 25-10-2020 08:20:00 12.9 C 9.47 g/m*3 12.9 C 3.2 km/h
78 25-10-2020 08:25:00 13 C 9.3 g/m*3 13 C 4.8 km/h
79 25-10-2020 08:30:00 13.1 C 9.36 g/m*3 13.1 C 4.8 km/h
80 25-10-2020 08:35:00 13.2 C 9.42 g/m*3 13.2 C 3.2 km/h
81 25-10-2020 08:40:00 13.3 C 9.47 g/m*3 13.3 C 1.6 km/h
82 25-10-2020 08:45:00 13.3 C 9.47 g/m*3 13.3 C 3.2 km/h
83 25-10-2020 08:50:00 13.4 C 9.53 g/m*3 13.4 C 1.6 km/h
84 25-10-2020 08:55:00 13.4 C 9.53 g/m*3 13.4 C 1.6 km/h
85 25-10-2020 09:00:00 13.5 C 9.71 g/m*3 13.5 C 0 km/h
86 25-10-2020 09:05:00 13.5 C 9.59 g/m*3 13.5 C 3.2 km/h
87 25-10-2020 09:10:00 13.6 C 9.53 g/m*3 13.6 C 1.6 km/h
88 25-10-2020 09:15:00 13.6 C 9.65 g/m*3 13.6 C 0 km/h
89 25-10-2020 09:20:00 13.7 C 9.47 g/m*3 13.7 C 4.8 km/h
90 25-10-2020 09:25:00 13.7 C 9.59 g/m*3 13.7 C 1.6 km/h
91 25-10-2020 09:30:00 13.8 C 9.65 g/m*3 13.8 C 4.8 km/h
92 25-10-2020 09:35:00 13.8 C 9.53 g/m*3 13.8 C 3.2 km/h
93 25-10-2020 09:40:00 13.9 C 9.59 g/m*3 13.9 C 0 km/h
94 25-10-2020 09:45:00 14 C 9.65 g/m*3 14 C 1.6 km/h
95 25-10-2020 09:50:00 14.1 C 9.71 g/m*3 14.1 C 6.4 km/h
96 25-10-2020 09:55:00 14.1 C 9.59 g/m*3 14.1 C 4.8 km/h
97 25-10-2020 10:00:00 14.2 C 9.65 g/m*3 14.2 C 4.8 km/h
98 25-10-2020 10:05:00 14.3 C 9.58 g/m*3 14.3 C 4.8 km/h
99 25-10-2020 10:10:00 14.3 C 9.46 g/m*3 14.3 C 4.8 km/h
100 25-10-2020 10:15:00 14.4 C 9.52 g/m*3 14.4 C 4.8 km/h
Sensor: Nr:Datum:Temp:Abs-Feuchte:Windchill:Wind:
Aussen-T/F 101 25-10-2020 10:20:00 14.5 C 9.7 g/m*3 14.5 C 6.4 km/h
102 25-10-2020 10:25:00 14.6 C 9.76 g/m*3 14.6 C 3.2 km/h
103 25-10-2020 10:30:00 14.6 C 9.76 g/m*3 14.6 C 3.2 km/h
104 25-10-2020 10:35:00 14.7 C 9.69 g/m*3 14.7 C 3.2 km/h
105 25-10-2020 10:40:00 14.8 C 9.88 g/m*3 14.8 C 1.6 km/h
106 25-10-2020 10:45:00 14.9 C 9.81 g/m*3 14.9 C 6.4 km/h
107 25-10-2020 10:50:00 14.9 C 9.69 g/m*3 14.9 C 3.2 km/h
108 25-10-2020 10:55:00 15 C 9.75 g/m*3 15 C 3.2 km/h
109 25-10-2020 11:00:00 15 C 9.75 g/m*3 15 C 1.6 km/h
110 25-10-2020 11:05:00 15.1 C 9.93 g/m*3 15.1 C 1.6 km/h
111 25-10-2020 11:10:00 15.2 C 9.86 g/m*3 15.2 C 0 km/h
112 25-10-2020 11:15:00 15.2 C 9.86 g/m*3 15.2 C 4.8 km/h

Legende:
   Min
   Max


Maximal/Minimal-Werte vom 25.10.2020 - 25.10.2020

Sensor Min Max Avg
Temp
(Aussen-T/F)
11.4 °C
25-10-2020  07:00:00
15.2 °C
25-10-2020  11:10:00
13.31 °C
Abs-Feuchte
(Aussen-T/F)
9.14 g/m*3
25-10-2020  07:00:00
10.39 g/m*3
25-10-2020  02:05:00
9.51 g/m*3
Windchill
(Aussen-T/F)
11.4 C
25-10-2020  07:00:00
15.2 C
25-10-2020  11:10:00
13.19 C

Die Daten stammen von einer Davis Vantage Pro 2 Wetter-Station und werden unter Linux mit der Software wview2wettercgi und aufbereitet. Alle Angaben erfolgen ohne Gewähr für ihre Vollständigkeit oder Richtigkeit.
Kontakt: Rainer Krienke krienke@uni-koblenz.de . Meine Webseiten an der Uni Koblenz oder privat.
Version: $Revision: 0.78 $